createdAt,value
2023-05-01T00:01:12.337Z,6.23
2023-05-01T00:03:40.042Z,6.61
2023-05-01T00:06:09.109Z,6.79
2023-05-01T00:08:36.799Z,6.60
2023-05-01T00:11:04.780Z,6.33
2023-05-01T00:13:32.411Z,7.00
2023-05-01T00:15:59.940Z,6.75
2023-05-01T00:18:27.455Z,6.32
2023-05-01T00:20:54.925Z,6.79
2023-05-01T00:23:23.802Z,6.20
2023-05-01T00:25:51.297Z,6.94
2023-05-01T00:28:19.263Z,6.45
2023-05-01T00:30:47.172Z,7.04
2023-05-01T00:33:14.737Z,6.86
2023-05-01T00:35:44.884Z,6.20
2023-05-01T00:38:12.615Z,6.05
2023-05-01T00:40:45.153Z,6.37
2023-05-01T00:43:12.962Z,5.92
2023-05-01T00:45:41.281Z,6.41
2023-05-01T00:48:09.006Z,6.47
2023-05-01T00:50:36.690Z,6.22
2023-05-01T00:53:04.267Z,6.02
2023-05-01T00:55:32.447Z,5.80
2023-05-01T00:58:01.535Z,5.66
2023-05-01T01:00:29.589Z,5.13
2023-05-01T01:02:57.268Z,5.34
2023-05-01T01:05:28.327Z,5.31
2023-05-01T01:08:01.474Z,5.12
2023-05-01T01:10:36.992Z,5.23
2023-05-01T01:13:11.704Z,4.71
2023-05-01T01:15:45.591Z,5.51
2023-05-01T01:18:17.917Z,5.40
2023-05-01T01:20:48.030Z,5.24
2023-05-01T01:23:45.320Z,4.88
2023-05-01T01:26:20.429Z,4.94
2023-05-01T01:29:08.642Z,4.39
2023-05-01T01:31:42.065Z,4.59
2023-05-01T01:34:14.505Z,4.73
2023-05-01T01:36:45.090Z,4.42
2023-05-01T01:39:17.387Z,3.66
2023-05-01T01:41:50.770Z,3.35
2023-05-01T01:44:23.484Z,3.29
2023-05-01T01:46:52.363Z,3.34
2023-05-01T01:49:24.366Z,3.35
2023-05-01T01:51:55.150Z,3.13
2023-05-01T01:54:26.230Z,3.00
2023-05-01T01:56:54.461Z,3.02
2023-05-01T01:59:22.781Z,2.94
2023-05-01T02:01:51.235Z,3.12
2023-05-01T02:04:19.287Z,2.94
2023-05-01T02:06:48.984Z,2.93
2023-05-01T02:09:17.709Z,3.21
2023-05-01T02:11:46.408Z,3.86
2023-05-01T02:14:14.499Z,4.16
2023-05-01T02:16:42.900Z,4.36
2023-05-01T02:19:10.580Z,3.90
2023-05-01T02:21:38.255Z,3.93
2023-05-01T02:24:08.316Z,3.74
2023-05-01T02:26:41.657Z,3.12
2023-05-01T02:29:09.352Z,2.83
2023-05-01T02:31:36.980Z,2.74
2023-05-01T02:34:04.461Z,2.84
2023-05-01T02:36:33.338Z,2.81
2023-05-01T02:39:00.872Z,2.77
2023-05-01T02:41:29.741Z,2.61
2023-05-01T02:44:01.574Z,2.67
2023-05-01T02:46:29.247Z,2.39
2023-05-01T02:48:58.388Z,2.37
2023-05-01T02:51:26.230Z,2.46
2023-05-01T02:53:54.066Z,2.51
2023-05-01T02:56:21.792Z,2.66
2023-05-01T02:58:50.567Z,3.09
2023-05-01T03:01:18.120Z,3.06
2023-05-01T03:03:45.701Z,3.18
2023-05-01T03:06:21.417Z,3.39
2023-05-01T03:08:48.923Z,3.26
2023-05-01T03:11:16.536Z,3.09
2023-05-01T03:13:44.663Z,2.56
2023-05-01T03:16:13.492Z,2.39
2023-05-01T03:18:40.995Z,2.37
2023-05-01T03:21:08.895Z,2.66
2023-05-01T03:23:38.303Z,2.59
2023-05-01T03:26:07.726Z,2.64
2023-05-01T03:28:35.216Z,2.61
2023-05-01T03:31:02.716Z,2.54
2023-05-01T03:33:31.656Z,2.83
2023-05-01T03:36:03.674Z,3.01
2023-05-01T03:38:31.623Z,2.73
2023-05-01T03:40:59.283Z,2.30
2023-05-01T03:43:26.887Z,2.31
2023-05-01T03:45:54.450Z,2.28
2023-05-01T03:48:22.222Z,2.63
2023-05-01T03:50:51.035Z,2.85
2023-05-01T03:53:18.574Z,3.05
2023-05-01T03:55:46.082Z,3.19
2023-05-01T03:58:13.545Z,3.39
2023-05-01T04:00:41.669Z,3.38
2023-05-01T04:03:09.254Z,3.52
2023-05-01T04:05:36.843Z,3.64
2023-05-01T04:08:06.335Z,3.43
2023-05-01T04:10:33.820Z,3.23
2023-05-01T04:13:01.470Z,2.91
2023-05-01T04:15:29.050Z,2.65
2023-05-01T04:17:56.861Z,2.70
2023-05-01T04:20:24.445Z,2.89
2023-05-01T04:22:52.076Z,2.99
2023-05-01T04:25:23.125Z,3.17
2023-05-01T04:27:50.969Z,3.20
2023-05-01T04:30:18.486Z,3.51
2023-05-01T04:32:46.196Z,3.36
2023-05-01T04:35:13.840Z,3.64
2023-05-01T04:37:41.339Z,3.31
2023-05-01T04:40:11.594Z,3.39
2023-05-01T04:42:40.734Z,3.56
2023-05-01T04:45:08.815Z,3.78
2023-05-01T04:47:36.308Z,3.86
2023-05-01T04:50:04.295Z,3.87
2023-05-01T04:52:31.818Z,3.93
2023-05-01T04:54:59.317Z,3.90
2023-05-01T04:57:27.057Z,4.14
2023-05-01T04:59:56.137Z,4.29
2023-05-01T05:02:24.232Z,4.54
2023-05-01T05:04:53.828Z,4.82
2023-05-01T05:07:21.414Z,5.00
2023-05-01T05:09:48.931Z,4.97
2023-05-01T05:12:16.464Z,4.92
2023-05-01T05:14:43.994Z,5.08
2023-05-01T05:17:12.791Z,5.27
2023-05-01T05:19:40.821Z,5.53
2023-05-01T05:22:08.321Z,5.94
2023-05-01T05:24:35.817Z,6.20
2023-05-01T05:27:04.057Z,6.45
2023-05-01T05:29:32.861Z,6.65
2023-05-01T05:32:00.470Z,6.27
2023-05-01T05:34:29.300Z,6.01
2023-05-01T05:36:56.831Z,6.15
2023-05-01T05:39:24.653Z,6.32
2023-05-01T05:41:53.791Z,6.39
2023-05-01T05:44:21.413Z,6.96
2023-05-01T05:46:48.936Z,7.16
2023-05-01T05:49:16.437Z,7.04
2023-05-01T05:51:45.355Z,7.26
2023-05-01T05:54:12.862Z,7.38
2023-05-01T05:56:40.345Z,7.40
2023-05-01T05:59:07.980Z,7.73
2023-05-01T06:01:37.234Z,7.80
2023-05-01T06:04:04.908Z,7.62
2023-05-01T06:06:32.959Z,7.72
2023-05-01T06:09:03.307Z,7.70
2023-05-01T06:11:30.826Z,7.80
2023-05-01T06:13:58.333Z,8.01
2023-05-01T06:16:26.014Z,7.89
2023-05-01T06:18:53.551Z,8.27
2023-05-01T06:21:21.287Z,8.34
2023-05-01T06:23:48.863Z,8.25
2023-05-01T06:26:17.634Z,8.46
2023-05-01T06:28:45.215Z,8.46
2023-05-01T06:31:12.746Z,8.98
2023-05-01T06:33:40.284Z,9.07
2023-05-01T06:36:08.259Z,8.82
2023-05-01T06:38:35.786Z,8.83
2023-05-01T06:41:03.294Z,8.92
2023-05-01T06:43:32.572Z,8.90
2023-05-01T06:46:00.278Z,9.30
2023-05-01T06:48:27.803Z,9.73
2023-05-01T06:50:56.627Z,9.81
2023-05-01T06:53:24.115Z,10.09
2023-05-01T06:55:51.686Z,9.87
2023-05-01T06:58:23.887Z,9.67
2023-05-01T07:00:54.419Z,9.70
2023-05-01T07:03:22.243Z,10.27
2023-05-01T07:05:49.782Z,9.80
2023-05-01T07:08:17.283Z,10.18
2023-05-01T07:10:44.893Z,11.38
2023-05-01T07:13:12.538Z,11.48
2023-05-01T07:15:40.020Z,11.62
2023-05-01T07:18:09.034Z,11.46
2023-05-01T07:20:36.826Z,11.79
2023-05-01T07:23:07.176Z,11.89
2023-05-01T07:25:36.184Z,11.47
2023-05-01T07:28:04.629Z,12.70
2023-05-01T07:30:33.157Z,12.44
2023-05-01T07:33:00.762Z,12.09
2023-05-01T07:35:29.822Z,12.35
2023-05-01T07:37:57.301Z,12.35
2023-05-01T07:40:25.005Z,12.94
2023-05-01T07:42:54.388Z,12.88
2023-05-01T07:45:22.183Z,11.68
2023-05-01T07:47:50.046Z,12.50
2023-05-01T07:50:18.002Z,12.34
2023-05-01T07:52:46.864Z,12.96
2023-05-01T07:55:14.415Z,13.13
2023-05-01T07:57:42.079Z,11.91
2023-05-01T08:00:10.638Z,13.59
2023-05-01T08:02:38.264Z,14.53
2023-05-01T08:05:06.706Z,12.55
2023-05-01T08:07:34.343Z,14.37
2023-05-01T08:10:03.316Z,12.96
2023-05-01T08:12:31.968Z,14.80
2023-05-01T08:14:59.516Z,13.52
2023-05-01T08:17:27.148Z,14.53
2023-05-01T08:19:56.641Z,14.60
2023-05-01T08:22:24.471Z,14.94
2023-05-01T08:24:52.011Z,14.23
2023-05-01T08:27:21.046Z,15.39
2023-05-01T08:29:52.447Z,15.69
2023-05-01T08:32:20.012Z,16.04
2023-05-01T08:34:47.592Z,15.57
2023-05-01T08:37:19.017Z,15.41
2023-05-01T08:39:46.554Z,14.61
2023-05-01T08:42:14.576Z,15.26
2023-05-01T08:44:43.454Z,16.27
2023-05-01T08:47:15.694Z,16.42
2023-05-01T08:49:44.145Z,14.82
2023-05-01T08:52:12.558Z,15.52
2023-05-01T08:54:43.083Z,16.32
2023-05-01T08:57:13.780Z,16.03
2023-05-01T08:59:43.093Z,18.27
2023-05-01T09:02:11.255Z,16.86
2023-05-01T09:04:40.556Z,16.48
2023-05-01T09:07:08.445Z,16.38
2023-05-01T09:09:36.682Z,16.31
2023-05-01T09:12:10.471Z,15.86
2023-05-01T09:14:38.008Z,15.14
2023-05-01T09:17:06.858Z,16.01
2023-05-01T09:19:34.387Z,16.60
2023-05-01T09:22:01.903Z,14.68
2023-05-01T09:24:29.394Z,17.46
2023-05-01T09:26:58.147Z,18.73
2023-05-01T09:29:38.674Z,17.84
2023-05-01T09:32:19.187Z,17.66
2023-05-01T09:34:47.310Z,17.22
2023-05-01T09:37:27.183Z,17.03
2023-05-01T09:40:05.588Z,17.46
2023-05-01T09:42:34.114Z,17.50
2023-05-01T09:45:02.016Z,17.85
2023-05-01T09:47:31.522Z,17.94
2023-05-01T09:50:00.539Z,18.15
2023-05-01T09:52:28.859Z,17.93
2023-05-01T09:55:16.385Z,17.91
2023-05-01T09:57:45.386Z,17.57
2023-05-01T10:00:15.518Z,17.51
2023-05-01T10:02:47.990Z,19.03
2023-05-01T10:05:16.279Z,19.16
2023-05-01T10:07:57.202Z,18.59
2023-05-01T10:10:25.015Z,18.64
2023-05-01T10:12:52.503Z,19.40
2023-05-01T10:15:26.095Z,19.19
2023-05-01T10:17:56.839Z,18.66
2023-05-01T10:20:24.407Z,18.84
2023-05-01T10:22:51.940Z,21.33
2023-05-01T10:25:20.482Z,21.79
2023-05-01T10:27:48.450Z,19.05
2023-05-01T10:30:16.461Z,18.87
2023-05-01T10:32:44.130Z,20.83
2023-05-01T10:35:16.510Z,20.37
2023-05-01T10:37:46.415Z,20.73
2023-05-01T10:40:45.347Z,21.17
2023-05-01T10:43:17.405Z,18.69
2023-05-01T10:45:45.501Z,19.92
2023-05-01T10:48:13.012Z,21.18
2023-05-01T10:51:12.934Z,20.47
2023-05-01T10:53:41.293Z,18.27
2023-05-01T10:56:43.856Z,17.97
2023-05-01T10:59:12.929Z,19.99
2023-05-01T11:01:44.671Z,16.73
2023-05-01T11:04:50.766Z,19.53
2023-05-01T11:07:19.553Z,22.66
2023-05-01T11:09:49.174Z,19.53
2023-05-01T11:12:54.217Z,18.60
2023-05-01T11:15:32.419Z,21.93
2023-05-01T11:18:00.714Z,21.55
2023-05-01T11:20:54.530Z,23.45
2023-05-01T11:23:28.008Z,20.43
2023-05-01T11:26:04.604Z,23.49
2023-05-01T11:28:34.870Z,23.80
2023-05-01T11:31:03.306Z,22.17
2023-05-01T11:33:31.804Z,23.46
2023-05-01T11:36:01.104Z,22.92
2023-05-01T11:38:28.690Z,22.41
2023-05-01T11:40:59.494Z,20.26
2023-05-01T11:43:27.366Z,23.38
2023-05-01T11:46:02.258Z,24.67
2023-05-01T11:48:31.196Z,21.75
2023-05-01T11:50:58.749Z,23.91
2023-05-01T11:53:26.322Z,21.57
2023-05-01T11:55:54.467Z,23.35
2023-05-01T11:58:32.994Z,19.39
2023-05-01T12:01:01.827Z,19.97
2023-05-01T12:03:29.803Z,17.15
2023-05-01T12:05:57.432Z,20.46
2023-05-01T12:08:25.411Z,23.10
2023-05-01T12:10:53.830Z,19.84
2023-05-01T12:13:21.747Z,22.24
2023-05-01T12:15:52.447Z,21.63
2023-05-01T12:18:22.362Z,25.19
2023-05-01T12:20:52.059Z,20.70
2023-05-01T12:23:20.702Z,21.66
2023-05-01T12:25:48.208Z,25.82
2023-05-01T12:28:18.133Z,25.18
2023-05-01T12:30:46.408Z,21.14
2023-05-01T12:33:15.142Z,20.64
2023-05-01T12:35:46.570Z,23.80
2023-05-01T12:38:15.685Z,22.11
2023-05-01T12:40:53.343Z,25.57
2023-05-01T12:43:21.538Z,25.79
2023-05-01T12:45:52.954Z,25.60
2023-05-01T12:48:22.373Z,22.17
2023-05-01T12:50:54.601Z,21.22
2023-05-01T12:53:23.185Z,22.87
2023-05-01T12:55:51.762Z,26.34
2023-05-01T12:58:19.485Z,24.01
2023-05-01T13:00:49.153Z,19.81
2023-05-01T13:03:18.173Z,19.94
2023-05-01T13:05:57.972Z,22.25
2023-05-01T13:08:31.177Z,21.45
2023-05-01T13:11:00.413Z,20.79
2023-05-01T13:13:29.235Z,21.96
2023-05-01T13:16:05.942Z,23.18
2023-05-01T13:18:34.161Z,23.39
2023-05-01T13:21:10.849Z,25.33
2023-05-01T13:23:39.015Z,24.05
2023-05-01T13:26:07.391Z,26.07
2023-05-01T13:28:36.252Z,24.57
2023-05-01T13:31:04.290Z,21.95
2023-05-01T13:33:32.537Z,24.81
2023-05-01T13:36:00.808Z,22.33
2023-05-01T13:38:31.594Z,23.90
2023-05-01T13:40:59.109Z,25.81
2023-05-01T13:43:26.825Z,23.63
2023-05-01T13:45:58.955Z,24.15
2023-05-01T13:48:26.504Z,25.31
2023-05-01T13:50:53.974Z,25.01
2023-05-01T13:53:21.846Z,26.38
2023-05-01T13:55:50.650Z,23.99
2023-05-01T13:58:18.163Z,24.92
2023-05-01T14:00:45.794Z,26.02
2023-05-01T14:03:13.701Z,25.65
2023-05-01T14:05:41.238Z,26.51
2023-05-01T14:08:10.806Z,27.11
2023-05-01T14:10:38.437Z,26.45
2023-05-01T14:13:07.728Z,26.20
2023-05-01T14:15:35.271Z,24.53
2023-05-01T14:18:06.740Z,25.96
2023-05-01T14:20:34.339Z,26.40
2023-05-01T14:23:01.935Z,26.14
2023-05-01T14:25:31.272Z,26.06
2023-05-01T14:28:00.831Z,22.57
2023-05-01T14:30:33.452Z,25.47
2023-05-01T14:33:03.279Z,25.19
2023-05-01T14:35:31.171Z,25.54
2023-05-01T14:38:12.910Z,26.23
2023-05-01T14:40:41.774Z,23.55
2023-05-01T14:43:10.420Z,24.11
2023-05-01T14:45:41.846Z,25.47
2023-05-01T14:48:09.853Z,25.15
2023-05-01T14:50:37.897Z,24.85
2023-05-01T14:53:05.854Z,24.84
2023-05-01T14:55:34.739Z,24.26
2023-05-01T14:58:02.530Z,25.90
2023-05-01T15:00:30.022Z,23.97
2023-05-01T15:02:59.402Z,25.11
2023-05-01T15:05:28.346Z,25.61
2023-05-01T15:07:57.307Z,24.39
2023-05-01T15:10:24.818Z,25.24
2023-05-01T15:12:52.342Z,25.75
2023-05-01T15:15:19.946Z,25.89
2023-05-01T15:17:47.511Z,25.37
2023-05-01T15:20:16.652Z,25.34
2023-05-01T15:22:44.232Z,24.85
2023-05-01T15:25:11.867Z,23.79
2023-05-01T15:27:39.373Z,24.83
2023-05-01T15:30:10.165Z,21.90
2023-05-01T15:32:38.455Z,22.94
2023-05-01T15:35:06.446Z,22.61
2023-05-01T15:37:35.303Z,24.34
2023-05-01T15:40:04.297Z,24.33
2023-05-01T15:42:31.861Z,24.90
2023-05-01T15:45:00.185Z,24.90
2023-05-01T15:47:28.303Z,24.93
2023-05-01T15:49:56.100Z,24.92
2023-05-01T15:52:25.105Z,24.75
2023-05-01T15:54:54.922Z,24.87
2023-05-01T15:57:22.478Z,24.52
2023-05-01T15:59:53.774Z,24.78
2023-05-01T16:02:21.762Z,24.74
2023-05-01T16:04:49.649Z,24.69
2023-05-01T16:07:17.181Z,24.52
2023-05-01T16:09:44.842Z,23.77
2023-05-01T16:12:14.030Z,24.09
2023-05-01T16:14:42.090Z,23.63
2023-05-01T16:17:10.091Z,21.18
2023-05-01T16:19:37.626Z,22.34
2023-05-01T16:22:06.899Z,22.20
2023-05-01T16:24:34.541Z,19.80
2023-05-01T16:27:02.038Z,22.70
2023-05-01T16:29:33.205Z,23.40
2023-05-01T16:32:01.023Z,23.20
2023-05-01T16:34:29.010Z,23.13
2023-05-01T16:36:56.654Z,21.75
2023-05-01T16:39:24.329Z,21.81
2023-05-01T16:41:53.434Z,22.21
2023-05-01T16:44:22.149Z,21.66
2023-05-01T16:46:53.672Z,22.94
2023-05-01T16:49:21.856Z,23.14
2023-05-01T16:51:49.621Z,22.84
2023-05-01T16:54:17.336Z,22.74
2023-05-01T16:56:44.838Z,22.77
2023-05-01T16:59:12.343Z,22.77
2023-05-01T17:01:39.890Z,22.78
2023-05-01T17:04:09.925Z,22.68
2023-05-01T17:06:37.452Z,22.48
2023-05-01T17:09:04.971Z,20.05
2023-05-01T17:11:32.438Z,18.91
2023-05-01T17:13:59.957Z,20.54
2023-05-01T17:16:27.601Z,20.21
2023-05-01T17:18:55.232Z,21.27
2023-05-01T17:21:25.093Z,20.19
2023-05-01T17:23:52.715Z,19.94
2023-05-01T17:26:20.181Z,21.27
2023-05-01T17:28:49.043Z,21.15
2023-05-01T17:31:18.257Z,20.55
2023-05-01T17:33:46.824Z,21.19
2023-05-01T17:36:14.389Z,20.17
2023-05-01T17:38:43.219Z,21.16
2023-05-01T17:41:10.686Z,21.00
2023-05-01T17:43:38.418Z,20.36
2023-05-01T17:46:06.870Z,20.19
2023-05-01T17:48:34.371Z,20.65
2023-05-01T17:51:01.856Z,19.99
2023-05-01T17:53:29.360Z,19.35
2023-05-01T17:55:58.292Z,19.29
2023-05-01T17:58:25.814Z,19.72
2023-05-01T18:00:55.433Z,19.71
2023-05-01T18:03:24.069Z,20.50
2023-05-01T18:05:51.622Z,20.45
2023-05-01T18:08:19.127Z,20.50
2023-05-01T18:10:46.609Z,20.67
2023-05-01T18:13:16.730Z,19.40
2023-05-01T18:15:44.312Z,19.56
2023-05-01T18:18:12.488Z,20.00
2023-05-01T18:20:40.355Z,20.29
2023-05-01T18:23:07.914Z,20.33
2023-05-01T18:25:35.565Z,19.35
2023-05-01T18:28:03.076Z,18.59
2023-05-01T18:30:31.901Z,17.76
2023-05-01T18:32:59.475Z,17.94
2023-05-01T18:35:26.953Z,19.00
2023-05-01T18:37:54.841Z,19.21
2023-05-01T18:40:22.327Z,18.25
2023-05-01T18:42:49.816Z,18.95
2023-05-01T18:45:17.593Z,19.00
2023-05-01T18:47:46.505Z,19.33
2023-05-01T18:50:14.203Z,19.21
2023-05-01T18:52:42.703Z,18.99
2023-05-01T18:55:11.279Z,19.16
2023-05-01T18:57:41.924Z,19.18
2023-05-01T19:00:10.575Z,19.01
2023-05-01T19:02:38.090Z,19.00
2023-05-01T19:05:08.446Z,18.86
2023-05-01T19:07:36.007Z,18.09
2023-05-01T19:10:03.725Z,16.63
2023-05-01T19:12:31.228Z,17.82
2023-05-01T19:14:58.710Z,17.23
2023-05-01T19:17:27.709Z,17.24
2023-05-01T19:19:55.318Z,17.20
2023-05-01T19:22:24.202Z,17.06
2023-05-01T19:24:51.714Z,17.21
2023-05-01T19:27:19.246Z,17.35
2023-05-01T19:29:46.727Z,17.41
2023-05-01T19:32:14.436Z,16.20
2023-05-01T19:34:42.534Z,15.70
2023-05-01T19:37:10.073Z,16.55
2023-05-01T19:39:39.751Z,16.20
2023-05-01T19:42:07.361Z,14.09
2023-05-01T19:44:34.905Z,13.24
2023-05-01T19:47:02.451Z,13.10
2023-05-01T19:49:29.963Z,12.40
2023-05-01T19:51:57.616Z,13.24
2023-05-01T19:54:26.975Z,12.45
2023-05-01T19:56:55.961Z,12.03
2023-05-01T19:59:23.621Z,11.72
2023-05-01T20:01:51.628Z,11.62
2023-05-01T20:04:19.414Z,11.55
2023-05-01T20:06:47.028Z,11.50
2023-05-01T20:09:14.675Z,11.52
2023-05-01T20:11:42.175Z,11.66
2023-05-01T20:14:11.165Z,11.87
2023-05-01T20:16:38.774Z,11.81
2023-05-01T20:19:06.346Z,12.22
2023-05-01T20:21:33.920Z,12.82
2023-05-01T20:24:01.418Z,12.17
2023-05-01T20:26:28.980Z,12.51
2023-05-01T20:28:56.720Z,13.13
2023-05-01T20:31:25.604Z,12.21
2023-05-01T20:33:53.202Z,12.94
2023-05-01T20:36:20.717Z,11.73
2023-05-01T20:38:48.646Z,10.95
2023-05-01T20:41:16.151Z,10.88
2023-05-01T20:43:43.635Z,10.93
2023-05-01T20:46:11.183Z,11.29
2023-05-01T20:48:40.249Z,11.99
2023-05-01T20:51:07.728Z,12.94
2023-05-01T20:53:35.235Z,13.68
2023-05-01T20:56:02.731Z,12.71
2023-05-01T20:58:30.392Z,11.21
2023-05-01T21:00:59.166Z,11.70
2023-05-01T21:03:26.866Z,12.38
2023-05-01T21:05:59.682Z,11.40
2023-05-01T21:08:28.188Z,11.36
2023-05-01T21:10:55.903Z,12.39
2023-05-01T21:13:24.964Z,12.21
2023-05-01T21:15:52.984Z,12.48
2023-05-01T21:18:21.475Z,11.50
2023-05-01T21:20:48.995Z,11.25
2023-05-01T21:23:18.604Z,10.88
2023-05-01T21:25:46.126Z,10.64
2023-05-01T21:28:14.579Z,10.48
2023-05-01T21:30:42.266Z,10.51
2023-05-01T21:33:14.469Z,10.18
2023-05-01T21:35:43.123Z,9.95
2023-05-01T21:38:11.006Z,10.02
2023-05-01T21:40:42.347Z,9.85
2023-05-01T21:43:10.747Z,9.75
2023-05-01T21:45:41.084Z,9.79
2023-05-01T21:48:09.142Z,9.74
2023-05-01T21:50:38.017Z,9.70
2023-05-01T21:53:07.234Z,9.81
2023-05-01T21:55:34.897Z,9.77
2023-05-01T21:58:04.025Z,9.78
2023-05-01T22:00:31.757Z,9.81
2023-05-01T22:02:59.381Z,9.72
2023-05-01T22:05:30.795Z,9.82
2023-05-01T22:07:58.645Z,9.93
2023-05-01T22:10:26.295Z,10.06
2023-05-01T22:12:53.838Z,10.17
2023-05-01T22:15:22.631Z,10.57
2023-05-01T22:17:50.187Z,9.95
2023-05-01T22:20:17.804Z,10.03
2023-05-01T22:22:45.983Z,9.98
2023-05-01T22:25:13.526Z,10.05
2023-05-01T22:27:41.742Z,10.01
2023-05-01T22:30:10.241Z,10.05
2023-05-01T22:32:39.235Z,10.22
2023-05-01T22:35:08.402Z,10.79
2023-05-01T22:37:35.976Z,10.26
2023-05-01T22:40:04.109Z,10.80
2023-05-01T22:42:31.754Z,11.54
2023-05-01T22:44:59.265Z,11.45
2023-05-01T22:47:26.855Z,10.96
2023-05-01T22:49:55.663Z,11.32
2023-05-01T22:52:23.268Z,11.33
2023-05-01T22:54:52.507Z,11.83
2023-05-01T22:57:20.012Z,11.46
2023-05-01T22:59:48.165Z,11.84
2023-05-01T23:02:17.373Z,11.95
2023-05-01T23:04:45.145Z,11.56
2023-05-01T23:07:15.842Z,11.81
2023-05-01T23:09:43.328Z,11.94
2023-05-01T23:12:16.378Z,12.29
2023-05-01T23:14:46.375Z,12.28
2023-05-01T23:17:14.212Z,12.02
2023-05-01T23:19:43.342Z,11.91
2023-05-01T23:22:12.988Z,12.22
2023-05-01T23:24:44.792Z,12.49
2023-05-01T23:27:13.406Z,12.34
2023-05-01T23:29:41.207Z,12.25
2023-05-01T23:32:09.930Z,12.53
2023-05-01T23:34:37.966Z,12.75
2023-05-01T23:37:06.469Z,12.34
2023-05-01T23:39:33.965Z,12.61
2023-05-01T23:42:03.303Z,12.42
2023-05-01T23:44:30.960Z,12.68
2023-05-01T23:46:58.498Z,12.38
2023-05-01T23:49:26.056Z,12.22
2023-05-01T23:51:53.596Z,11.91
2023-05-01T23:54:21.082Z,12.18
2023-05-01T23:56:48.590Z,12.11
2023-05-01T23:59:17.393Z,11.98
